sensor_id;sensor_type;location;lat;lon;timestamp;temperature;humidity
46438;DHT22;32137;48.728;9.142;2023-07-09T00:01:32;23.40;1.00
46438;DHT22;32137;48.728;9.142;2023-07-09T00:03:58;23.50;1.00
46438;DHT22;32137;48.728;9.142;2023-07-09T00:06:23;23.60;99.90
46438;DHT22;32137;48.728;9.142;2023-07-09T00:08:49;23.70;1.00
46438;DHT22;32137;48.728;9.142;2023-07-09T00:11:15;23.70;1.00
46438;DHT22;32137;48.728;9.142;2023-07-09T00:13:40;23.80;98.50
46438;DHT22;32137;48.728;9.142;2023-07-09T00:16:13;23.90;99.90
46438;DHT22;32137;48.728;9.142;2023-07-09T00:18:39;23.80;1.00
46438;DHT22;32137;48.728;9.142;2023-07-09T00:21:04;23.80;1.00
46438;DHT22;32137;48.728;9.142;2023-07-09T00:23:31;23.70;99.90
46438;DHT22;32137;48.728;9.142;2023-07-09T00:25:56;23.60;1.00
46438;DHT22;32137;48.728;9.142;2023-07-09T00:28:22;23.50;99.90
46438;DHT22;32137;48.728;9.142;2023-07-09T00:30:47;23.40;99.90
46438;DHT22;32137;48.728;9.142;2023-07-09T00:33:13;23.20;1.00
46438;DHT22;32137;48.728;9.142;2023-07-09T00:35:44;23.20;1.00
46438;DHT22;32137;48.728;9.142;2023-07-09T00:38:14;23.20;1.00
46438;DHT22;32137;48.728;9.142;2023-07-09T00:40:45;23.30;99.90
46438;DHT22;32137;48.728;9.142;2023-07-09T00:43:12;23.30;1.00
46438;DHT22;32137;48.728;9.142;2023-07-09T00:45:40;23.30;1.00
46438;DHT22;32137;48.728;9.142;2023-07-09T00:48:05;23.30;1.00
46438;DHT22;32137;48.728;9.142;2023-07-09T00:50:36;23.20;99.90
46438;DHT22;32137;48.728;9.142;2023-07-09T00:53:04;23.10;96.80
46438;DHT22;32137;48.728;9.142;2023-07-09T00:55:33;23.00;80.30
46438;DHT22;32137;48.728;9.142;2023-07-09T00:58:03;23.00;32.70
46438;DHT22;32137;48.728;9.142;2023-07-09T01:00:34;23.00;93.80
46438;DHT22;32137;48.728;9.142;2023-07-09T01:03:08;23.00;82.70
46438;DHT22;32137;48.728;9.142;2023-07-09T01:05:36;23.10;99.90
46438;DHT22;32137;48.728;9.142;2023-07-09T01:08:02;23.10;1.00
46438;DHT22;32137;48.728;9.142;2023-07-09T01:10:28;23.10;1.00
46438;DHT22;32137;48.728;9.142;2023-07-09T01:12:53;23.00;1.00
46438;DHT22;32137;48.728;9.142;2023-07-09T01:15:19;23.00;1.00
46438;DHT22;32137;48.728;9.142;2023-07-09T01:17:45;23.00;1.00
46438;DHT22;32137;48.728;9.142;2023-07-09T01:20:14;23.00;1.00
46438;DHT22;32137;48.728;9.142;2023-07-09T01:22:41;23.00;1.00
46438;DHT22;32137;48.728;9.142;2023-07-09T01:25:10;22.90;1.00
46438;DHT22;32137;48.728;9.142;2023-07-09T01:27:38;22.80;1.00
46438;DHT22;32137;48.728;9.142;2023-07-09T01:30:09;22.90;1.00
46438;DHT22;32137;48.728;9.142;2023-07-09T01:32:36;22.90;74.10
46438;DHT22;32137;48.728;9.142;2023-07-09T01:35:02;22.90;1.00
46438;DHT22;32137;48.728;9.142;2023-07-09T01:37:32;22.80;1.00
46438;DHT22;32137;48.728;9.142;2023-07-09T01:39:58;22.80;1.00
46438;DHT22;32137;48.728;9.142;2023-07-09T01:42:24;22.90;99.90
46438;DHT22;32137;48.728;9.142;2023-07-09T01:44:51;23.00;70.20
46438;DHT22;32137;48.728;9.142;2023-07-09T01:47:17;22.90;94.60
46438;DHT22;32137;48.728;9.142;2023-07-09T01:49:43;22.90;27.90
46438;DHT22;32137;48.728;9.142;2023-07-09T01:52:11;22.90;33.20
46438;DHT22;32137;48.728;9.142;2023-07-09T01:54:37;22.90;76.40
46438;DHT22;32137;48.728;9.142;2023-07-09T01:57:13;22.80;76.20
46438;DHT22;32137;48.728;9.142;2023-07-09T01:59:39;22.70;99.90
46438;DHT22;32137;48.728;9.142;2023-07-09T02:02:07;22.70;94.80
46438;DHT22;32137;48.728;9.142;2023-07-09T02:04:32;22.70;80.30
46438;DHT22;32137;48.728;9.142;2023-07-09T02:06:58;22.70;38.80
46438;DHT22;32137;48.728;9.142;2023-07-09T02:09:23;22.60;32.90
46438;DHT22;32137;48.728;9.142;2023-07-09T02:11:49;22.50;77.00
46438;DHT22;32137;48.728;9.142;2023-07-09T02:14:14;22.60;38.00
46438;DHT22;32137;48.728;9.142;2023-07-09T02:16:39;22.60;52.90
46438;DHT22;32137;48.728;9.142;2023-07-09T02:19:05;22.50;1.00
46438;DHT22;32137;48.728;9.142;2023-07-09T02:21:31;22.50;22.00
46438;DHT22;32137;48.728;9.142;2023-07-09T02:23:56;22.40;1.00
46438;DHT22;32137;48.728;9.142;2023-07-09T02:26:22;22.40;1.00
46438;DHT22;32137;48.728;9.142;2023-07-09T02:28:47;22.40;53.10
46438;DHT22;32137;48.728;9.142;2023-07-09T02:31:13;22.40;13.20
46438;DHT22;32137;48.728;9.142;2023-07-09T02:33:41;22.50;99.90
46438;DHT22;32137;48.728;9.142;2023-07-09T02:36:06;22.50;84.50
46438;DHT22;32137;48.728;9.142;2023-07-09T02:38:32;22.50;1.00
46438;DHT22;32137;48.728;9.142;2023-07-09T02:40:57;22.40;1.00
46438;DHT22;32137;48.728;9.142;2023-07-09T02:43:22;22.40;28.30
46438;DHT22;32137;48.728;9.142;2023-07-09T02:45:48;22.40;64.50
46438;DHT22;32137;48.728;9.142;2023-07-09T02:48:13;22.30;82.30
46438;DHT22;32137;48.728;9.142;2023-07-09T02:50:39;22.30;75.40
46438;DHT22;32137;48.728;9.142;2023-07-09T02:53:04;22.20;8.80
46438;DHT22;32137;48.728;9.142;2023-07-09T02:55:30;22.20;4.00
46438;DHT22;32137;48.728;9.142;2023-07-09T02:57:55;22.10;89.00
46438;DHT22;32137;48.728;9.142;2023-07-09T03:00:21;22.10;1.00
46438;DHT22;32137;48.728;9.142;2023-07-09T03:02:46;22.00;18.10
46438;DHT22;32137;48.728;9.142;2023-07-09T03:05:11;22.00;87.70
46438;DHT22;32137;48.728;9.142;2023-07-09T03:07:37;22.10;99.90
46438;DHT22;32137;48.728;9.142;2023-07-09T03:10:02;22.20;44.70
46438;DHT22;32137;48.728;9.142;2023-07-09T03:12:28;22.20;52.10
46438;DHT22;32137;48.728;9.142;2023-07-09T03:14:54;22.10;65.40
46438;DHT22;32137;48.728;9.142;2023-07-09T03:17:19;22.10;63.30
46438;DHT22;32137;48.728;9.142;2023-07-09T03:19:44;22.00;86.50
46438;DHT22;32137;48.728;9.142;2023-07-09T03:22:10;21.90;28.50
46438;DHT22;32137;48.728;9.142;2023-07-09T03:24:35;21.80;15.50
46438;DHT22;32137;48.728;9.142;2023-07-09T03:27:01;21.80;95.80
46438;DHT22;32137;48.728;9.142;2023-07-09T03:29:26;21.70;70.50
46438;DHT22;32137;48.728;9.142;2023-07-09T03:31:52;21.80;79.80
46438;DHT22;32137;48.728;9.142;2023-07-09T03:34:17;21.80;79.30
46438;DHT22;32137;48.728;9.142;2023-07-09T03:36:43;21.70;99.90
46438;DHT22;32137;48.728;9.142;2023-07-09T03:39:09;21.80;98.30
46438;DHT22;32137;48.728;9.142;2023-07-09T03:41:34;21.70;99.90
46438;DHT22;32137;48.728;9.142;2023-07-09T03:44:00;21.70;77.90
46438;DHT22;32137;48.728;9.142;2023-07-09T03:46:25;21.60;67.80
46438;DHT22;32137;48.728;9.142;2023-07-09T03:48:51;21.60;98.60
46438;DHT22;32137;48.728;9.142;2023-07-09T03:51:16;21.60;99.90
46438;DHT22;32137;48.728;9.142;2023-07-09T03:53:43;21.50;99.90
46438;DHT22;32137;48.728;9.142;2023-07-09T03:56:08;21.50;99.90
46438;DHT22;32137;48.728;9.142;2023-07-09T03:58:34;21.50;99.90
46438;DHT22;32137;48.728;9.142;2023-07-09T04:01:00;21.50;99.90
46438;DHT22;32137;48.728;9.142;2023-07-09T04:03:25;21.40;99.90
46438;DHT22;32137;48.728;9.142;2023-07-09T04:05:51;21.30;99.90
46438;DHT22;32137;48.728;9.142;2023-07-09T04:08:16;21.20;99.90
46438;DHT22;32137;48.728;9.142;2023-07-09T04:10:42;21.20;99.90
46438;DHT22;32137;48.728;9.142;2023-07-09T04:13:08;21.20;99.90
46438;DHT22;32137;48.728;9.142;2023-07-09T04:15:33;21.30;99.90
46438;DHT22;32137;48.728;9.142;2023-07-09T04:17:58;21.20;99.90
46438;DHT22;32137;48.728;9.142;2023-07-09T04:20:24;21.20;96.10
46438;DHT22;32137;48.728;9.142;2023-07-09T04:22:49;21.20;99.10
46438;DHT22;32137;48.728;9.142;2023-07-09T04:25:15;21.20;99.90
46438;DHT22;32137;48.728;9.142;2023-07-09T04:27:40;21.10;99.90
46438;DHT22;32137;48.728;9.142;2023-07-09T04:30:10;21.10;99.90
46438;DHT22;32137;48.728;9.142;2023-07-09T04:32:36;21.10;99.90
46438;DHT22;32137;48.728;9.142;2023-07-09T04:35:02;21.20;99.90
46438;DHT22;32137;48.728;9.142;2023-07-09T04:37:27;21.30;99.90
46438;DHT22;32137;48.728;9.142;2023-07-09T04:39:53;21.30;99.90
46438;DHT22;32137;48.728;9.142;2023-07-09T04:42:18;21.30;99.90
46438;DHT22;32137;48.728;9.142;2023-07-09T04:44:44;21.30;99.90
46438;DHT22;32137;48.728;9.142;2023-07-09T04:47:10;21.40;99.90
46438;DHT22;32137;48.728;9.142;2023-07-09T04:49:37;21.40;99.90
46438;DHT22;32137;48.728;9.142;2023-07-09T04:52:03;21.40;99.90
46438;DHT22;32137;48.728;9.142;2023-07-09T04:54:28;21.40;99.90
46438;DHT22;32137;48.728;9.142;2023-07-09T04:56:54;21.40;99.90
46438;DHT22;32137;48.728;9.142;2023-07-09T04:59:21;21.40;99.90
46438;DHT22;32137;48.728;9.142;2023-07-09T05:01:46;21.40;99.90
46438;DHT22;32137;48.728;9.142;2023-07-09T05:04:12;21.40;99.90
46438;DHT22;32137;48.728;9.142;2023-07-09T05:06:37;21.40;99.90
46438;DHT22;32137;48.728;9.142;2023-07-09T05:09:03;21.40;99.90
46438;DHT22;32137;48.728;9.142;2023-07-09T05:11:29;21.50;99.90
46438;DHT22;32137;48.728;9.142;2023-07-09T05:13:54;21.50;99.90
46438;DHT22;32137;48.728;9.142;2023-07-09T05:16:20;21.50;99.90
46438;DHT22;32137;48.728;9.142;2023-07-09T05:18:45;21.50;99.90
46438;DHT22;32137;48.728;9.142;2023-07-09T05:21:11;21.60;92.30
46438;DHT22;32137;48.728;9.142;2023-07-09T05:23:37;21.60;99.90
46438;DHT22;32137;48.728;9.142;2023-07-09T05:26:02;21.60;99.90
46438;DHT22;32137;48.728;9.142;2023-07-09T05:28:28;21.60;90.20
46438;DHT22;32137;48.728;9.142;2023-07-09T05:30:54;21.70;94.70
46438;DHT22;32137;48.728;9.142;2023-07-09T05:33:20;21.60;84.50
46438;DHT22;32137;48.728;9.142;2023-07-09T05:35:46;21.70;96.20
46438;DHT22;32137;48.728;9.142;2023-07-09T05:38:11;21.70;99.90
46438;DHT22;32137;48.728;9.142;2023-07-09T05:40:37;21.70;91.50
46438;DHT22;32137;48.728;9.142;2023-07-09T05:43:03;21.80;91.10
46438;DHT22;32137;48.728;9.142;2023-07-09T05:45:28;21.80;97.20
46438;DHT22;32137;48.728;9.142;2023-07-09T05:47:54;21.90;99.20
46438;DHT22;32137;48.728;9.142;2023-07-09T05:50:19;21.90;99.90
46438;DHT22;32137;48.728;9.142;2023-07-09T05:52:45;21.90;99.90
46438;DHT22;32137;48.728;9.142;2023-07-09T05:55:10;21.90;99.90
46438;DHT22;32137;48.728;9.142;2023-07-09T05:57:36;22.00;99.90
46438;DHT22;32137;48.728;9.142;2023-07-09T06:00:01;22.00;99.90
46438;DHT22;32137;48.728;9.142;2023-07-09T06:02:27;22.00;93.30
46438;DHT22;32137;48.728;9.142;2023-07-09T06:04:52;22.10;99.40
46438;DHT22;32137;48.728;9.142;2023-07-09T06:07:18;22.10;97.10
46438;DHT22;32137;48.728;9.142;2023-07-09T06:09:44;22.20;99.90
46438;DHT22;32137;48.728;9.142;2023-07-09T06:12:11;22.20;90.40
46438;DHT22;32137;48.728;9.142;2023-07-09T06:14:36;22.30;94.50
46438;DHT22;32137;48.728;9.142;2023-07-09T06:17:02;22.30;91.00
46438;DHT22;32137;48.728;9.142;2023-07-09T06:19:27;22.40;84.80
46438;DHT22;32137;48.728;9.142;2023-07-09T06:21:53;22.40;62.10
46438;DHT22;32137;48.728;9.142;2023-07-09T06:24:18;22.40;49.00
46438;DHT22;32137;48.728;9.142;2023-07-09T06:26:44;22.50;63.70
46438;DHT22;32137;48.728;9.142;2023-07-09T06:29:09;22.50;91.60
46438;DHT22;32137;48.728;9.142;2023-07-09T06:31:34;22.60;46.40
46438;DHT22;32137;48.728;9.142;2023-07-09T06:34:02;22.60;65.70
46438;DHT22;32137;48.728;9.142;2023-07-09T06:36:28;22.60;87.50
46438;DHT22;32137;48.728;9.142;2023-07-09T06:38:53;22.60;83.40
46438;DHT22;32137;48.728;9.142;2023-07-09T06:41:19;22.60;81.70
46438;DHT22;32137;48.728;9.142;2023-07-09T06:43:45;22.60;96.90
46438;DHT22;32137;48.728;9.142;2023-07-09T06:46:12;22.60;52.60
46438;DHT22;32137;48.728;9.142;2023-07-09T06:48:38;22.70;25.20
46438;DHT22;32137;48.728;9.142;2023-07-09T06:51:03;22.70;1.00
46438;DHT22;32137;48.728;9.142;2023-07-09T06:53:29;22.80;1.00
46438;DHT22;32137;48.728;9.142;2023-07-09T06:55:55;22.90;1.00
46438;DHT22;32137;48.728;9.142;2023-07-09T06:58:24;22.90;1.00
46438;DHT22;32137;48.728;9.142;2023-07-09T07:00:50;23.00;1.00
46438;DHT22;32137;48.728;9.142;2023-07-09T07:03:16;23.10;1.00
46438;DHT22;32137;48.728;9.142;2023-07-09T07:05:45;23.10;1.00
46438;DHT22;32137;48.728;9.142;2023-07-09T07:08:12;23.10;1.00
46438;DHT22;32137;48.728;9.142;2023-07-09T07:10:38;23.20;1.00
46438;DHT22;32137;48.728;9.142;2023-07-09T07:13:03;23.20;1.00
46438;DHT22;32137;48.728;9.142;2023-07-09T07:15:29;23.30;1.00
46438;DHT22;32137;48.728;9.142;2023-07-09T07:17:54;23.30;1.00
46438;DHT22;32137;48.728;9.142;2023-07-09T07:20:20;23.40;1.00
46438;DHT22;32137;48.728;9.142;2023-07-09T07:22:45;23.40;1.00
46438;DHT22;32137;48.728;9.142;2023-07-09T07:25:11;23.30;1.00
46438;DHT22;32137;48.728;9.142;2023-07-09T07:27:37;23.40;1.00
46438;DHT22;32137;48.728;9.142;2023-07-09T07:30:03;23.40;1.00
46438;DHT22;32137;48.728;9.142;2023-07-09T07:32:28;23.50;1.00
46438;DHT22;32137;48.728;9.142;2023-07-09T07:34:54;23.50;1.00
46438;DHT22;32137;48.728;9.142;2023-07-09T07:37:20;23.50;1.00
46438;DHT22;32137;48.728;9.142;2023-07-09T07:39:46;23.60;1.00
46438;DHT22;32137;48.728;9.142;2023-07-09T07:42:12;23.60;1.00
46438;DHT22;32137;48.728;9.142;2023-07-09T07:44:37;23.70;1.00
46438;DHT22;32137;48.728;9.142;2023-07-09T07:47:03;23.70;1.00
46438;DHT22;32137;48.728;9.142;2023-07-09T07:49:29;23.70;1.00
46438;DHT22;32137;48.728;9.142;2023-07-09T07:51:54;23.70;1.00
46438;DHT22;32137;48.728;9.142;2023-07-09T07:54:21;23.70;1.00
46438;DHT22;32137;48.728;9.142;2023-07-09T07:56:46;23.70;1.00
46438;DHT22;32137;48.728;9.142;2023-07-09T07:59:11;23.70;1.00
46438;DHT22;32137;48.728;9.142;2023-07-09T08:01:37;23.70;1.00
46438;DHT22;32137;48.728;9.142;2023-07-09T08:04:02;23.70;1.00
46438;DHT22;32137;48.728;9.142;2023-07-09T08:06:28;23.80;1.00
46438;DHT22;32137;48.728;9.142;2023-07-09T08:08:53;23.80;1.00
46438;DHT22;32137;48.728;9.142;2023-07-09T08:11:19;23.90;1.00
46438;DHT22;32137;48.728;9.142;2023-07-09T08:13:44;23.90;1.00
46438;DHT22;32137;48.728;9.142;2023-07-09T08:16:10;23.90;1.00
46438;DHT22;32137;48.728;9.142;2023-07-09T08:18:37;23.90;1.00
46438;DHT22;32137;48.728;9.142;2023-07-09T08:21:03;23.90;5.50
46438;DHT22;32137;48.728;9.142;2023-07-09T08:23:28;23.90;1.00
46438;DHT22;32137;48.728;9.142;2023-07-09T08:25:55;23.90;1.00
46438;DHT22;32137;48.728;9.142;2023-07-09T08:28:20;24.00;1.00
46438;DHT22;32137;48.728;9.142;2023-07-09T08:30:46;24.00;1.00
46438;DHT22;32137;48.728;9.142;2023-07-09T08:33:11;24.10;1.00
46438;DHT22;32137;48.728;9.142;2023-07-09T08:35:37;24.20;1.00
46438;DHT22;32137;48.728;9.142;2023-07-09T08:38:02;24.20;1.00
46438;DHT22;32137;48.728;9.142;2023-07-09T08:40:28;24.30;1.00
46438;DHT22;32137;48.728;9.142;2023-07-09T08:42:54;24.40;99.90
46438;DHT22;32137;48.728;9.142;2023-07-09T08:45:29;24.40;1.00
46438;DHT22;32137;48.728;9.142;2023-07-09T08:48:03;24.50;99.90
46438;DHT22;32137;48.728;9.142;2023-07-09T08:50:38;24.50;99.90
46438;DHT22;32137;48.728;9.142;2023-07-09T08:53:04;24.60;99.90
46438;DHT22;32137;48.728;9.142;2023-07-09T08:55:29;24.60;99.90
46438;DHT22;32137;48.728;9.142;2023-07-09T08:58:05;24.60;99.90
46438;DHT22;32137;48.728;9.142;2023-07-09T09:00:41;24.70;99.90
46438;DHT22;32137;48.728;9.142;2023-07-09T09:03:16;24.80;99.90
46438;DHT22;32137;48.728;9.142;2023-07-09T09:05:47;24.80;99.90
46438;DHT22;32137;48.728;9.142;2023-07-09T09:10:49;24.80;1.00
46438;DHT22;32137;48.728;9.142;2023-07-09T09:13:17;24.90;99.90
46438;DHT22;32137;48.728;9.142;2023-07-09T09:15:45;24.90;99.90
46438;DHT22;32137;48.728;9.142;2023-07-09T09:18:25;25.10;99.90
46438;DHT22;32137;48.728;9.142;2023-07-09T09:20:53;25.20;99.90
46438;DHT22;32137;48.728;9.142;2023-07-09T09:23:21;25.40;99.90
46438;DHT22;32137;48.728;9.142;2023-07-09T09:25:50;25.50;99.90
46438;DHT22;32137;48.728;9.142;2023-07-09T09:28:16;25.70;99.90
46438;DHT22;32137;48.728;9.142;2023-07-09T09:30:42;25.80;99.90
46438;DHT22;32137;48.728;9.142;2023-07-09T09:33:08;25.90;99.90
46438;DHT22;32137;48.728;9.142;2023-07-09T09:35:38;26.00;99.90
46438;DHT22;32137;48.728;9.142;2023-07-09T09:38:16;25.90;99.90
46438;DHT22;32137;48.728;9.142;2023-07-09T09:40:42;26.00;99.90
46438;DHT22;32137;48.728;9.142;2023-07-09T09:43:18;26.10;99.90
46438;DHT22;32137;48.728;9.142;2023-07-09T09:45:45;26.30;99.90
46438;DHT22;32137;48.728;9.142;2023-07-09T09:48:19;26.30;99.90
46438;DHT22;32137;48.728;9.142;2023-07-09T09:50:46;26.50;99.90
46438;DHT22;32137;48.728;9.142;2023-07-09T09:53:16;26.50;99.90
46438;DHT22;32137;48.728;9.142;2023-07-09T09:55:43;26.60;99.90
46438;DHT22;32137;48.728;9.142;2023-07-09T09:58:11;26.70;99.90
46438;DHT22;32137;48.728;9.142;2023-07-09T10:00:38;26.80;99.90
46438;DHT22;32137;48.728;9.142;2023-07-09T10:03:04;26.80;99.90
46438;DHT22;32137;48.728;9.142;2023-07-09T10:05:38;26.90;99.90
46438;DHT22;32137;48.728;9.142;2023-07-09T10:08:08;27.00;99.90
46438;DHT22;32137;48.728;9.142;2023-07-09T10:10:34;27.20;99.90
46438;DHT22;32137;48.728;9.142;2023-07-09T10:23:28;27.20;99.90
46438;DHT22;32137;48.728;9.142;2023-07-09T10:25:57;27.40;99.90
46438;DHT22;32137;48.728;9.142;2023-07-09T10:28:30;27.40;99.90
46438;DHT22;32137;48.728;9.142;2023-07-09T10:39:18;28.00;99.90
46438;DHT22;32137;48.728;9.142;2023-07-09T10:41:44;28.10;99.90
46438;DHT22;32137;48.728;9.142;2023-07-09T10:44:15;28.10;99.90
46438;DHT22;32137;48.728;9.142;2023-07-09T10:46:42;28.00;99.90
46438;DHT22;32137;48.728;9.142;2023-07-09T10:49:10;28.00;99.90
46438;DHT22;32137;48.728;9.142;2023-07-09T10:51:50;28.10;99.90
46438;DHT22;32137;48.728;9.142;2023-07-09T10:54:37;28.30;99.90
46438;DHT22;32137;48.728;9.142;2023-07-09T10:59:48;28.60;99.90
46438;DHT22;32137;48.728;9.142;2023-07-09T11:04:51;28.70;99.90
46438;DHT22;32137;48.728;9.142;2023-07-09T11:07:20;28.60;99.90
46438;DHT22;32137;48.728;9.142;2023-07-09T11:09:47;28.80;99.90
46438;DHT22;32137;48.728;9.142;2023-07-09T11:12:17;28.90;99.90
46438;DHT22;32137;48.728;9.142;2023-07-09T11:14:48;29.00;99.90
46438;DHT22;32137;48.728;9.142;2023-07-09T11:17:16;29.20;99.90
46438;DHT22;32137;48.728;9.142;2023-07-09T11:19:43;29.40;99.90
46438;DHT22;32137;48.728;9.142;2023-07-09T11:27:24;29.60;99.90
46438;DHT22;32137;48.728;9.142;2023-07-09T11:29:57;29.70;99.90
46438;DHT22;32137;48.728;9.142;2023-07-09T11:32:23;29.80;99.90
46438;DHT22;32137;48.728;9.142;2023-07-09T11:34:48;30.10;99.90
46438;DHT22;32137;48.728;9.142;2023-07-09T11:37:14;30.40;99.90
46438;DHT22;32137;48.728;9.142;2023-07-09T11:50:05;35.80;85.50
46438;DHT22;32137;48.728;9.142;2023-07-09T11:52:33;38.30;75.00
46438;DHT22;32137;48.728;9.142;2023-07-09T11:55:08;40.20;64.30
46438;DHT22;32137;48.728;9.142;2023-07-09T11:57:41;41.80;57.30
46438;DHT22;32137;48.728;9.142;2023-07-09T12:00:08;42.50;57.40
46438;DHT22;32137;48.728;9.142;2023-07-09T12:02:34;42.80;56.50
46438;DHT22;32137;48.728;9.142;2023-07-09T12:05:00;43.70;55.40
46438;DHT22;32137;48.728;9.142;2023-07-09T12:07:28;44.80;54.30
46438;DHT22;32137;48.728;9.142;2023-07-09T12:09:54;44.10;55.40
46438;DHT22;32137;48.728;9.142;2023-07-09T12:12:21;44.40;53.40
46438;DHT22;32137;48.728;9.142;2023-07-09T12:14:46;45.70;51.80
46438;DHT22;32137;48.728;9.142;2023-07-09T12:17:12;46.50;52.00
46438;DHT22;32137;48.728;9.142;2023-07-09T12:19:37;47.80;51.30
46438;DHT22;32137;48.728;9.142;2023-07-09T12:22:05;48.30;50.30
46438;DHT22;32137;48.728;9.142;2023-07-09T12:24:35;49.00;51.50
46438;DHT22;32137;48.728;9.142;2023-07-09T12:27:02;49.80;52.70
46438;DHT22;32137;48.728;9.142;2023-07-09T12:29:28;49.90;61.30
46438;DHT22;32137;48.728;9.142;2023-07-09T12:31:57;50.30;63.50
46438;DHT22;32137;48.728;9.142;2023-07-09T12:34:23;50.40;73.00
46438;DHT22;32137;48.728;9.142;2023-07-09T12:36:49;49.90;62.20
46438;DHT22;32137;48.728;9.142;2023-07-09T12:39:25;49.70;62.80
46438;DHT22;32137;48.728;9.142;2023-07-09T12:41:51;49.70;63.40
46438;DHT22;32137;48.728;9.142;2023-07-09T12:44:20;49.90;61.30
46438;DHT22;32137;48.728;9.142;2023-07-09T12:46:46;49.40;61.40
46438;DHT22;32137;48.728;9.142;2023-07-09T12:49:18;48.10;60.30
46438;DHT22;32137;48.728;9.142;2023-07-09T12:51:45;47.00;60.70
46438;DHT22;32137;48.728;9.142;2023-07-09T12:54:15;46.00;58.40
46438;DHT22;32137;48.728;9.142;2023-07-09T12:56:40;45.30;56.70
46438;DHT22;32137;48.728;9.142;2023-07-09T12:59:15;45.00;56.30
46438;DHT22;32137;48.728;9.142;2023-07-09T13:01:41;45.10;55.40
46438;DHT22;32137;48.728;9.142;2023-07-09T13:04:07;44.80;54.10
46438;DHT22;32137;48.728;9.142;2023-07-09T13:06:36;44.40;53.40
46438;DHT22;32137;48.728;9.142;2023-07-09T13:09:09;44.60;54.30
46438;DHT22;32137;48.728;9.142;2023-07-09T13:11:36;45.20;54.50
46438;DHT22;32137;48.728;9.142;2023-07-09T13:14:05;46.60;54.90
46438;DHT22;32137;48.728;9.142;2023-07-09T13:16:37;47.90;54.80
46438;DHT22;32137;48.728;9.142;2023-07-09T13:19:03;49.00;54.60
46438;DHT22;32137;48.728;9.142;2023-07-09T13:21:28;49.60;55.40
46438;DHT22;32137;48.728;9.142;2023-07-09T13:23:54;49.00;56.50
46438;DHT22;32137;48.728;9.142;2023-07-09T13:26:20;48.40;56.20
46438;DHT22;32137;48.728;9.142;2023-07-09T13:28:45;47.60;55.30
46438;DHT22;32137;48.728;9.142;2023-07-09T13:31:16;47.80;56.30
46438;DHT22;32137;48.728;9.142;2023-07-09T13:33:42;47.50;56.50
46438;DHT22;32137;48.728;9.142;2023-07-09T13:36:08;46.50;53.60
46438;DHT22;32137;48.728;9.142;2023-07-09T13:38:33;46.70;53.90
46438;DHT22;32137;48.728;9.142;2023-07-09T13:40:59;47.90;56.00
46438;DHT22;32137;48.728;9.142;2023-07-09T13:43:29;48.80;55.40
46438;DHT22;32137;48.728;9.142;2023-07-09T13:45:55;48.90;53.70
46438;DHT22;32137;48.728;9.142;2023-07-09T13:48:22;48.40;52.50
46438;DHT22;32137;48.728;9.142;2023-07-09T13:50:49;48.10;53.40
46438;DHT22;32137;48.728;9.142;2023-07-09T13:53:17;46.90;53.00
46438;DHT22;32137;48.728;9.142;2023-07-09T13:55:42;45.90;53.10
46438;DHT22;32137;48.728;9.142;2023-07-09T13:58:12;45.00;53.80
46438;DHT22;32137;48.728;9.142;2023-07-09T14:00:38;44.60;51.90
46438;DHT22;32137;48.728;9.142;2023-07-09T14:03:09;44.50;51.20
46438;DHT22;32137;48.728;9.142;2023-07-09T14:05:37;44.50;51.10
46438;DHT22;32137;48.728;9.142;2023-07-09T14:08:03;44.50;50.70
46438;DHT22;32137;48.728;9.142;2023-07-09T14:10:28;44.60;49.60
46438;DHT22;32137;48.728;9.142;2023-07-09T14:12:54;44.90;47.60
46438;DHT22;32137;48.728;9.142;2023-07-09T14:15:21;45.30;45.40
46438;DHT22;32137;48.728;9.142;2023-07-09T14:17:47;45.30;45.30
46438;DHT22;32137;48.728;9.142;2023-07-09T14:20:13;44.90;46.90
46438;DHT22;32137;48.728;9.142;2023-07-09T14:22:40;44.10;47.90
46438;DHT22;32137;48.728;9.142;2023-07-09T14:25:21;43.50;50.70
46438;DHT22;32137;48.728;9.142;2023-07-09T14:27:51;42.70;51.00
46438;DHT22;32137;48.728;9.142;2023-07-09T14:30:17;42.10;52.80
46438;DHT22;32137;48.728;9.142;2023-07-09T14:32:44;41.20;54.60
46438;DHT22;32137;48.728;9.142;2023-07-09T14:35:14;40.60;55.60
46438;DHT22;32137;48.728;9.142;2023-07-09T14:37:40;40.20;55.80
46438;DHT22;32137;48.728;9.142;2023-07-09T14:40:06;40.00;57.50
46438;DHT22;32137;48.728;9.142;2023-07-09T14:42:31;40.00;56.20
46438;DHT22;32137;48.728;9.142;2023-07-09T14:44:57;39.90;56.10
46438;DHT22;32137;48.728;9.142;2023-07-09T14:47:23;39.90;56.50
46438;DHT22;32137;48.728;9.142;2023-07-09T14:49:48;40.00;57.30
46438;DHT22;32137;48.728;9.142;2023-07-09T14:52:19;40.10;56.60
46438;DHT22;32137;48.728;9.142;2023-07-09T14:54:47;40.10;56.10
46438;DHT22;32137;48.728;9.142;2023-07-09T14:57:21;40.00;57.50
46438;DHT22;32137;48.728;9.142;2023-07-09T14:59:49;40.00;56.30
46438;DHT22;32137;48.728;9.142;2023-07-09T15:04:47;40.20;58.10
46438;DHT22;32137;48.728;9.142;2023-07-09T15:07:13;40.20;58.10
46438;DHT22;32137;48.728;9.142;2023-07-09T15:09:39;40.30;55.60
46438;DHT22;32137;48.728;9.142;2023-07-09T15:12:05;40.30;54.80
46438;DHT22;32137;48.728;9.142;2023-07-09T15:14:35;40.40;55.20
46438;DHT22;32137;48.728;9.142;2023-07-09T15:17:00;40.40;55.10
46438;DHT22;32137;48.728;9.142;2023-07-09T15:19:25;40.40;54.60
46438;DHT22;32137;48.728;9.142;2023-07-09T15:21:51;40.40;55.50
46438;DHT22;32137;48.728;9.142;2023-07-09T15:26:49;40.10;54.70
46438;DHT22;32137;48.728;9.142;2023-07-09T15:29:17;39.60;55.70
46438;DHT22;32137;48.728;9.142;2023-07-09T15:31:43;39.20;55.80
46438;DHT22;32137;48.728;9.142;2023-07-09T15:34:08;38.90;57.50
46438;DHT22;32137;48.728;9.142;2023-07-09T15:36:34;38.70;60.40
46438;DHT22;32137;48.728;9.142;2023-07-09T15:38:59;38.60;61.20
46438;DHT22;32137;48.728;9.142;2023-07-09T15:41:25;38.60;60.30
46438;DHT22;32137;48.728;9.142;2023-07-09T15:43:50;38.50;58.80
46438;DHT22;32137;48.728;9.142;2023-07-09T15:46:19;38.40;59.80
46438;DHT22;32137;48.728;9.142;2023-07-09T15:48:45;38.30;60.40
46438;DHT22;32137;48.728;9.142;2023-07-09T15:51:11;38.30;58.60
46438;DHT22;32137;48.728;9.142;2023-07-09T15:53:37;38.20;61.60
46438;DHT22;32137;48.728;9.142;2023-07-09T15:56:05;38.10;61.50
46438;DHT22;32137;48.728;9.142;2023-07-09T15:58:39;38.00;60.90
46438;DHT22;32137;48.728;9.142;2023-07-09T16:01:10;37.80;64.20
46438;DHT22;32137;48.728;9.142;2023-07-09T16:03:36;37.60;61.50
46438;DHT22;32137;48.728;9.142;2023-07-09T16:06:02;37.50;59.80
46438;DHT22;32137;48.728;9.142;2023-07-09T16:08:27;37.50;60.70
46438;DHT22;32137;48.728;9.142;2023-07-09T16:10:53;37.30;60.60
46438;DHT22;32137;48.728;9.142;2023-07-09T16:13:24;37.20;63.10
46438;DHT22;32137;48.728;9.142;2023-07-09T16:15:50;37.10;64.90
46438;DHT22;32137;48.728;9.142;2023-07-09T16:18:17;37.00;64.30
46438;DHT22;32137;48.728;9.142;2023-07-09T16:20:43;36.90;66.30